createdAt,value
2023-02-28T00:00:39.230Z,72.77
2023-02-28T00:03:41.982Z,71.60
2023-02-28T00:06:44.655Z,72.32
2023-02-28T00:09:47.211Z,71.95
2023-02-28T00:12:52.829Z,73.53
2023-02-28T00:16:06.312Z,73.09
2023-02-28T00:19:09.138Z,73.73
2023-02-28T00:22:11.804Z,73.89
2023-02-28T00:25:22.266Z,73.12
2023-02-28T00:28:25.222Z,73.16
2023-02-28T00:31:28.157Z,71.19
2023-02-28T00:34:30.847Z,71.18
2023-02-28T00:37:33.900Z,71.49
2023-02-28T00:40:36.666Z,71.75
2023-02-28T00:43:41.262Z,71.54
2023-02-28T00:46:43.940Z,72.36
2023-02-28T00:49:46.525Z,72.23
2023-02-28T00:52:49.091Z,70.61
2023-02-28T00:55:52.037Z,70.07
2023-02-28T00:58:54.522Z,70.19
2023-02-28T01:01:57.112Z,72.63
2023-02-28T01:04:59.759Z,74.34
2023-02-28T01:08:06.118Z,72.03
2023-02-28T01:11:13.592Z,70.41
2023-02-28T01:14:18.305Z,70.01
2023-02-28T01:17:21.879Z,69.99
2023-02-28T01:20:24.735Z,70.33
2023-02-28T01:23:27.415Z,70.22
2023-02-28T01:26:30.761Z,70.74
2023-02-28T01:29:33.256Z,71.63
2023-02-28T01:32:36.312Z,72.54
2023-02-28T01:35:39.732Z,72.67
2023-02-28T01:38:43.917Z,72.67
2023-02-28T01:41:46.578Z,73.12
2023-02-28T01:45:04.492Z,72.65
2023-02-28T01:48:09.333Z,71.40
2023-02-28T01:51:21.321Z,73.44
2023-02-28T01:54:26.904Z,72.52
2023-02-28T01:57:38.701Z,73.20
2023-02-28T02:00:43.778Z,73.94
2023-02-28T02:03:46.669Z,73.78
2023-02-28T02:06:49.597Z,74.83
2023-02-28T02:10:01.422Z,73.03
2023-02-28T02:13:41.685Z,72.52
2023-02-28T02:17:02.506Z,71.60
2023-02-28T02:20:36.207Z,72.28
2023-02-28T02:24:01.029Z,73.17
2023-02-28T02:27:03.478Z,73.68
2023-02-28T02:30:33.090Z,74.21
2023-02-28T02:33:38.502Z,74.25
2023-02-28T02:36:56.785Z,71.91
2023-02-28T02:40:20.975Z,70.77
2023-02-28T02:43:51.468Z,71.14
2023-02-28T02:47:00.558Z,71.17
2023-02-28T02:50:07.399Z,72.97
2023-02-28T02:53:10.489Z,72.60
2023-02-28T02:56:15.352Z,72.15
2023-02-28T02:59:22.591Z,71.58
2023-02-28T03:02:27.248Z,72.49
2023-02-28T03:05:35.642Z,71.85
2023-02-28T03:08:39.277Z,72.19
2023-02-28T03:11:43.305Z,72.92
2023-02-28T03:15:18.499Z,74.07
2023-02-28T03:18:44.268Z,73.24
2023-02-28T03:22:10.012Z,72.79
2023-02-28T03:25:23.377Z,72.59
2023-02-28T03:28:28.601Z,71.89
2023-02-28T03:31:44.989Z,71.88
2023-02-28T03:34:50.811Z,72.46
2023-02-28T03:37:56.605Z,72.21
2023-02-28T03:41:23.349Z,71.75
2023-02-28T03:44:30.442Z,71.46
2023-02-28T03:47:37.541Z,71.47
2023-02-28T03:50:42.497Z,71.67
2023-02-28T03:53:52.810Z,72.01
2023-02-28T03:57:02.489Z,71.77
2023-02-28T04:00:13.347Z,71.84
2023-02-28T04:03:15.783Z,73.00
2023-02-28T04:06:21.528Z,73.12
2023-02-28T04:09:24.711Z,73.73
2023-02-28T04:12:27.487Z,74.44
2023-02-28T04:15:30.089Z,73.43
2023-02-28T04:18:32.733Z,74.34
2023-02-28T04:21:40.673Z,74.40
2023-02-28T04:24:43.314Z,73.78
2023-02-28T04:27:46.066Z,74.07
2023-02-28T04:30:48.769Z,74.91
2023-02-28T04:33:51.432Z,74.89
2023-02-28T04:37:11.584Z,74.52
2023-02-28T04:40:15.298Z,74.70
2023-02-28T04:43:18.033Z,74.15
2023-02-28T04:46:21.310Z,74.47
2023-02-28T04:49:23.924Z,72.01
2023-02-28T04:52:28.710Z,71.29
2023-02-28T04:55:31.272Z,71.73
2023-02-28T04:58:35.028Z,71.76
2023-02-28T05:01:37.785Z,71.28
2023-02-28T05:04:40.576Z,71.22
2023-02-28T05:07:43.171Z,72.48
2023-02-28T05:10:45.787Z,74.17
2023-02-28T05:13:49.088Z,74.06
2023-02-28T05:16:52.041Z,74.14
2023-02-28T05:19:57.207Z,73.28
2023-02-28T05:23:04.601Z,72.26
2023-02-28T05:26:07.127Z,71.87
2023-02-28T05:29:10.328Z,71.00
2023-02-28T05:32:13.540Z,72.65
2023-02-28T05:35:16.147Z,73.78
2023-02-28T05:38:19.106Z,73.96
2023-02-28T05:41:22.716Z,74.34
2023-02-28T05:44:25.749Z,73.40
2023-02-28T05:47:28.277Z,72.73
2023-02-28T05:50:30.868Z,72.00
2023-02-28T05:53:33.971Z,72.07
2023-02-28T05:56:36.661Z,72.10
2023-02-28T05:59:41.105Z,72.45
2023-02-28T06:02:43.856Z,72.51
2023-02-28T06:05:46.524Z,71.91
2023-02-28T06:08:49.371Z,71.85
2023-02-28T06:11:52.167Z,72.24
2023-02-28T06:14:54.939Z,71.53
2023-02-28T06:17:57.962Z,72.53
2023-02-28T06:21:00.821Z,73.66
2023-02-28T06:24:03.876Z,72.64
2023-02-28T06:27:06.878Z,73.44
2023-02-28T06:30:10.790Z,73.56
2023-02-28T06:33:13.545Z,73.49
2023-02-28T06:36:17.469Z,73.55
2023-02-28T06:39:20.630Z,73.46
2023-02-28T06:42:30.004Z,73.42
2023-02-28T06:45:32.986Z,74.16
2023-02-28T06:48:36.545Z,73.75
2023-02-28T06:51:41.104Z,73.63
2023-02-28T06:54:43.941Z,73.27
2023-02-28T06:57:46.679Z,73.87
2023-02-28T07:00:52.943Z,74.97
2023-02-28T07:03:55.818Z,74.77
2023-02-28T07:06:59.454Z,75.14
2023-02-28T07:10:02.534Z,73.95
2023-02-28T07:13:06.305Z,73.87
2023-02-28T07:16:11.958Z,73.70
2023-02-28T07:19:14.710Z,73.61
2023-02-28T07:22:17.564Z,72.06
2023-02-28T07:25:20.432Z,72.91
2023-02-28T07:28:23.223Z,72.90
2023-02-28T07:31:25.938Z,72.58
2023-02-28T07:34:28.784Z,72.34
2023-02-28T07:37:32.792Z,71.79
2023-02-28T07:40:37.111Z,70.81
2023-02-28T07:43:39.719Z,70.38
2023-02-28T07:46:42.457Z,71.57
2023-02-28T07:49:46.695Z,69.90
2023-02-28T07:52:49.369Z,70.18
2023-02-28T07:55:52.098Z,70.64
2023-02-28T07:58:54.902Z,69.75
2023-02-28T08:01:58.728Z,69.66
2023-02-28T08:05:02.196Z,69.21
2023-02-28T08:08:05.305Z,68.75
2023-02-28T08:11:07.915Z,69.03
2023-02-28T08:14:10.721Z,69.59
2023-02-28T08:17:13.863Z,68.90
2023-02-28T08:20:16.989Z,68.86
2023-02-28T08:23:20.164Z,68.37
2023-02-28T08:26:23.373Z,67.98
2023-02-28T08:29:26.768Z,67.58
2023-02-28T08:32:30.712Z,67.69
2023-02-28T08:35:33.488Z,68.53
2023-02-28T08:38:37.490Z,67.25
2023-02-28T08:41:40.273Z,66.78
2023-02-28T08:44:43.030Z,66.84
2023-02-28T08:47:45.777Z,67.14
2023-02-28T08:51:07.651Z,67.86
2023-02-28T08:54:13.724Z,66.39
2023-02-28T08:57:16.481Z,66.06
2023-02-28T09:00:19.773Z,65.37
2023-02-28T09:03:24.344Z,64.92
2023-02-28T09:06:29.130Z,64.64
2023-02-28T09:09:32.120Z,64.49
2023-02-28T09:12:36.718Z,64.13
2023-02-28T09:15:40.142Z,62.66
2023-02-28T09:18:43.099Z,63.74
2023-02-28T09:21:45.897Z,62.54
2023-02-28T09:24:48.596Z,61.51
2023-02-28T09:27:51.725Z,61.09
2023-02-28T09:30:55.541Z,61.99
2023-02-28T09:33:58.629Z,61.22
2023-02-28T09:37:01.417Z,60.54
2023-02-28T09:40:05.028Z,60.65
2023-02-28T09:43:10.561Z,60.37
2023-02-28T09:46:27.798Z,59.36
2023-02-28T09:49:39.008Z,59.26
2023-02-28T09:52:42.110Z,59.61
2023-02-28T09:55:50.165Z,59.43
2023-02-28T09:59:14.370Z,59.46
2023-02-28T10:02:32.340Z,57.73
2023-02-28T10:05:44.382Z,58.39
2023-02-28T10:09:06.763Z,55.58
2023-02-28T10:12:11.136Z,55.43
2023-02-28T10:15:18.288Z,54.03
2023-02-28T10:18:26.490Z,54.46
2023-02-28T10:21:40.130Z,55.75
2023-02-28T10:24:49.349Z,55.83
2023-02-28T10:27:55.442Z,54.60
2023-02-28T10:30:59.943Z,55.16
2023-02-28T10:34:04.076Z,55.36
2023-02-28T10:37:09.501Z,55.05
2023-02-28T10:40:21.253Z,54.75
2023-02-28T10:43:25.582Z,54.44
2023-02-28T10:46:31.347Z,55.22
2023-02-28T10:49:35.248Z,54.27
2023-02-28T10:52:44.006Z,55.59
2023-02-28T10:55:46.758Z,55.39
2023-02-28T10:59:16.744Z,53.88
2023-02-28T11:05:37.377Z,54.62
2023-02-28T11:09:08.082Z,54.61
2023-02-28T11:12:30.481Z,54.06
2023-02-28T11:15:35.306Z,54.06
2023-02-28T11:18:53.732Z,54.27
2023-02-28T11:22:02.215Z,53.70
2023-02-28T11:25:28.694Z,55.30
2023-02-28T11:28:34.519Z,54.45
2023-02-28T11:31:37.265Z,54.32
2023-02-28T11:34:41.029Z,53.10
2023-02-28T11:37:43.884Z,53.46
2023-02-28T11:40:55.626Z,53.51
2023-02-28T11:44:24.592Z,54.50
2023-02-28T11:47:56.305Z,52.93
2023-02-28T11:50:58.881Z,54.68
2023-02-28T11:54:36.591Z,52.14
2023-02-28T11:57:50.704Z,52.79
2023-02-28T12:01:02.291Z,52.86
2023-02-28T12:04:17.088Z,52.78
2023-02-28T12:07:31.602Z,52.57
2023-02-28T12:10:49.966Z,53.47
2023-02-28T12:14:15.388Z,53.73
2023-02-28T12:17:32.112Z,54.21
2023-02-28T12:20:53.564Z,54.40
2023-02-28T12:24:02.325Z,52.64
2023-02-28T12:27:09.114Z,53.84
2023-02-28T12:30:19.662Z,53.92
2023-02-28T12:33:25.853Z,53.85
2023-02-28T12:36:29.790Z,54.01
2023-02-28T12:39:49.502Z,54.12
2023-02-28T12:42:56.621Z,52.91
2023-02-28T12:46:27.339Z,52.91
2023-02-28T12:49:34.934Z,53.24
2023-02-28T12:52:57.550Z,53.65
2023-02-28T12:56:17.085Z,54.48
2023-02-28T12:59:32.356Z,53.44
2023-02-28T13:02:46.995Z,53.08
2023-02-28T13:06:14.108Z,52.10
2023-02-28T13:09:17.286Z,53.25
2023-02-28T13:12:21.793Z,53.04
2023-02-28T13:15:29.485Z,52.31
2023-02-28T13:18:47.197Z,51.27
2023-02-28T13:21:50.908Z,50.87
2023-02-28T13:24:55.109Z,51.09
2023-02-28T13:28:02.097Z,51.22
2023-02-28T13:31:06.561Z,52.03
2023-02-28T13:34:16.955Z,51.21
2023-02-28T13:37:43.791Z,51.85
2023-02-28T13:40:46.701Z,51.68
2023-02-28T13:44:10.621Z,51.72
2023-02-28T13:47:25.986Z,50.91
2023-02-28T13:50:34.706Z,50.31
2023-02-28T13:53:54.718Z,52.23
2023-02-28T13:57:12.438Z,51.33
2023-02-28T14:00:34.033Z,51.34
2023-02-28T14:03:53.638Z,50.49
2023-02-28T14:06:57.189Z,51.44
2023-02-28T14:10:06.739Z,50.78
2023-02-28T14:13:46.592Z,50.87
2023-02-28T14:16:51.337Z,51.34
2023-02-28T14:19:54.213Z,50.42
2023-02-28T14:23:03.022Z,49.93
2023-02-28T14:26:18.667Z,50.86
2023-02-28T14:29:36.564Z,50.89
2023-02-28T14:33:03.494Z,51.79
2023-02-28T14:36:15.213Z,51.11
2023-02-28T14:39:24.212Z,51.03
2023-02-28T14:42:45.766Z,48.44
2023-02-28T14:45:55.779Z,48.88
2023-02-28T14:48:58.569Z,50.81
2023-02-28T14:52:13.498Z,48.64
2023-02-28T14:55:20.053Z,50.16
2023-02-28T14:58:26.994Z,50.03
2023-02-28T15:01:30.449Z,51.42
2023-02-28T15:04:34.771Z,50.46
2023-02-28T15:07:38.048Z,51.76
2023-02-28T15:10:54.209Z,50.40
2023-02-28T15:13:57.769Z,50.16
2023-02-28T15:17:07.528Z,52.30
2023-02-28T15:20:13.963Z,52.24
2023-02-28T15:23:17.033Z,52.41
2023-02-28T15:26:23.246Z,54.24
2023-02-28T15:29:28.407Z,55.35
2023-02-28T15:32:36.986Z,55.62
2023-02-28T15:35:40.105Z,56.37
2023-02-28T15:38:43.771Z,55.43
2023-02-28T15:41:46.814Z,56.31
2023-02-28T15:44:49.746Z,56.36
2023-02-28T15:47:53.621Z,56.60
2023-02-28T15:51:18.455Z,55.17
2023-02-28T15:54:25.807Z,56.60
2023-02-28T15:57:30.677Z,56.48
2023-02-28T16:00:36.674Z,57.28
2023-02-28T16:03:46.835Z,59.48
2023-02-28T16:07:06.918Z,59.42
2023-02-28T16:10:12.402Z,58.54
2023-02-28T16:13:16.480Z,58.88
2023-02-28T16:16:21.602Z,58.66
2023-02-28T16:19:25.134Z,59.91
2023-02-28T16:22:28.121Z,60.93
2023-02-28T16:25:38.255Z,61.60
2023-02-28T16:28:40.961Z,61.88
2023-02-28T16:31:43.707Z,62.20
2023-02-28T16:34:46.815Z,61.60
2023-02-28T16:37:49.775Z,61.31
2023-02-28T16:40:53.199Z,61.88
2023-02-28T16:44:01.355Z,63.48
2023-02-28T16:47:05.342Z,62.83
2023-02-28T16:50:18.591Z,63.23
2023-02-28T16:53:24.170Z,63.21
2023-02-28T16:56:27.462Z,63.48
2023-02-28T16:59:30.340Z,63.19
2023-02-28T17:02:33.491Z,62.51
2023-02-28T17:05:39.163Z,62.51
2023-02-28T17:08:41.916Z,61.97
2023-02-28T17:11:45.680Z,62.25
2023-02-28T17:14:48.728Z,62.13
2023-02-28T17:17:51.968Z,62.12
2023-02-28T17:20:54.755Z,62.77
2023-02-28T17:23:57.550Z,61.45
2023-02-28T17:27:00.585Z,61.76
2023-02-28T17:30:22.941Z,61.92
2023-02-28T17:33:25.718Z,62.61
2023-02-28T17:36:29.126Z,63.02
2023-02-28T17:39:32.183Z,63.10
2023-02-28T17:42:35.189Z,64.05
2023-02-28T17:45:38.191Z,64.02
2023-02-28T17:48:41.228Z,64.64
2023-02-28T17:51:44.568Z,65.27
2023-02-28T17:54:47.528Z,65.45
2023-02-28T17:57:50.371Z,64.79
2023-02-28T18:00:55.656Z,64.80
2023-02-28T18:03:58.507Z,63.83
2023-02-28T18:07:01.592Z,63.91
2023-02-28T18:10:05.179Z,63.77
2023-02-28T18:13:08.964Z,64.17
2023-02-28T18:16:12.431Z,65.21
2023-02-28T18:19:17.531Z,65.82
2023-02-28T18:22:20.557Z,66.33
2023-02-28T18:25:24.479Z,66.25
2023-02-28T18:28:30.433Z,66.67
2023-02-28T18:31:34.175Z,66.97
2023-02-28T18:34:37.880Z,67.56
2023-02-28T18:37:42.429Z,66.64
2023-02-28T18:40:54.433Z,66.79
2023-02-28T18:44:13.815Z,66.60
2023-02-28T18:47:26.379Z,66.41
2023-02-28T18:50:31.816Z,65.55
2023-02-28T18:53:37.195Z,65.71
2023-02-28T18:56:40.546Z,65.49
2023-02-28T18:59:43.659Z,66.24
2023-02-28T19:02:46.703Z,66.11
2023-02-28T19:05:50.959Z,65.84
2023-02-28T19:08:55.987Z,65.20
2023-02-28T19:11:58.970Z,66.27
2023-02-28T19:15:03.417Z,65.83
2023-02-28T19:18:06.731Z,66.60
2023-02-28T19:21:12.514Z,67.17
2023-02-28T19:24:16.194Z,66.87
2023-02-28T19:27:22.259Z,67.91
2023-02-28T19:30:26.363Z,67.31
2023-02-28T19:33:29.810Z,68.27
2023-02-28T19:36:32.601Z,68.89
2023-02-28T19:39:41.487Z,67.74
2023-02-28T19:42:44.314Z,69.46
2023-02-28T19:45:47.315Z,70.66
2023-02-28T19:48:53.574Z,68.74
2023-02-28T19:51:56.391Z,68.88
2023-02-28T19:54:59.133Z,68.92
2023-02-28T19:58:01.872Z,70.24
2023-02-28T20:01:16.066Z,70.59
2023-02-28T20:04:19.058Z,70.54
2023-02-28T20:07:23.395Z,71.31
2023-02-28T20:10:29.156Z,71.54
2023-02-28T20:13:34.002Z,71.26
2023-02-28T20:16:37.072Z,70.69
2023-02-28T20:19:41.535Z,71.34
2023-02-28T20:22:46.428Z,70.79
2023-02-28T20:25:51.814Z,70.78
2023-02-28T20:28:55.432Z,71.29
2023-02-28T20:31:58.482Z,69.88
2023-02-28T20:35:01.270Z,69.63
2023-02-28T20:38:04.127Z,69.89
2023-02-28T20:41:07.424Z,69.48
2023-02-28T20:44:12.711Z,68.65
2023-02-28T20:47:15.631Z,68.76
2023-02-28T20:50:18.319Z,68.89
2023-02-28T20:53:21.239Z,69.06
2023-02-28T20:56:24.143Z,69.41
2023-02-28T20:59:27.505Z,69.70
2023-02-28T21:02:30.774Z,69.50
2023-02-28T21:05:33.936Z,69.65
2023-02-28T21:08:37.768Z,69.15
2023-02-28T21:11:41.846Z,69.62
2023-02-28T21:14:44.858Z,70.90
2023-02-28T21:17:48.905Z,72.24
2023-02-28T21:20:51.641Z,74.00
2023-02-28T21:23:54.384Z,74.35
2023-02-28T21:26:57.894Z,73.43
2023-02-28T21:30:00.858Z,73.20
2023-02-28T21:33:03.725Z,72.60
2023-02-28T21:36:09.443Z,73.16
2023-02-28T21:39:23.424Z,71.92
2023-02-28T21:42:26.359Z,71.51
2023-02-28T21:45:29.552Z,72.25
2023-02-28T21:48:32.426Z,72.27
2023-02-28T21:51:35.130Z,71.65
2023-02-28T21:54:37.684Z,71.80
2023-02-28T21:57:40.404Z,73.12
2023-02-28T22:00:43.317Z,72.70
2023-02-28T22:03:46.864Z,72.04
2023-02-28T22:07:00.000Z,71.42
2023-02-28T22:10:02.684Z,72.30
2023-02-28T22:13:05.265Z,72.06
2023-02-28T22:16:10.635Z,72.76
2023-02-28T22:19:13.581Z,73.52
2023-02-28T22:22:16.273Z,73.62
2023-02-28T22:25:19.590Z,73.21
2023-02-28T22:28:23.763Z,72.85
2023-02-28T22:31:32.716Z,72.86
2023-02-28T22:34:35.393Z,73.66
2023-02-28T22:37:38.176Z,74.77
2023-02-28T22:40:40.786Z,74.83
2023-02-28T22:43:44.145Z,74.81
2023-02-28T22:46:46.873Z,75.53
2023-02-28T22:49:49.817Z,75.82
2023-02-28T22:52:53.011Z,75.92
2023-02-28T22:55:56.718Z,76.00
2023-02-28T22:59:01.221Z,73.81
2023-02-28T23:02:04.038Z,73.72
2023-02-28T23:05:06.987Z,74.13
2023-02-28T23:08:09.633Z,75.65
2023-02-28T23:11:22.259Z,76.15
2023-02-28T23:14:25.194Z,76.78
2023-02-28T23:17:27.779Z,75.95
2023-02-28T23:20:30.375Z,76.43
2023-02-28T23:23:34.152Z,75.68
2023-02-28T23:26:38.289Z,75.97
2023-02-28T23:29:40.968Z,75.12
2023-02-28T23:32:43.905Z,75.18
2023-02-28T23:35:46.593Z,75.78
2023-02-28T23:38:50.582Z,75.82
2023-02-28T23:41:53.339Z,75.22
2023-02-28T23:44:56.165Z,75.75
2023-02-28T23:47:58.861Z,75.43
2023-02-28T23:51:08.816Z,75.01
2023-02-28T23:54:11.621Z,75.10
2023-02-28T23:57:14.433Z,75.03
